KBTV/BTV METAR and TAF weather

Enter ICAO airport designator
Station Type Date Time Source
KBTV METAR 2019/12/11 14:54 UTC NOAA

KBTV 111454Z 12004KT 10SM FEW120 M06/M13 A3025 RMK AO2 SLP249 T10561133 50006


Station Type Date Time Source
KBTV Decoded METAR 2019/12/11 14:54 UTC NOAA

BURLINGTON INTERNATIONAL, VT, United States (KBTV) 44-28N 73-09W 105M
Dec 11, 2019 - 09:54 AM EST / 2019.12.11 1454 UTC
Wind: from the ESE (120 degrees) at 5 MPH (4 KT):0
Visibility: 10 mile(s):0
Sky conditions: mostly clear
Temperature: 21.9 F (-5.6 C)
Windchill: 15 F (-9 C):1
Dew Point: 8.1 F (-13.3 C)
Relative Humidity: 54%
Pressure (altimeter): 30.25 in. Hg (1024 hPa)
Pressure tendency: 0.02 inches (0.6 hPa) higher than three hours ago
ob: KBTV 111454Z 12004KT 10SM FEW120 M06/M13 A3025 RMK AO2 SLP249 T10561133 50006
cycle: 15

Station Type Date Time Source
KBTV TAF 2019/12/11 14:36 UTC NOAA

TAF KBTV 111334Z 1114/1212 01006KT P6SM SCT250
FM111600 17007KT P6SM SCT250
FM112300 21012G22KT P6SM VCSH SCT030 BKN060
FM120200 25013G22KT P6SM SCT100

Example: see airport list